createdAt,value
2017-07-16T00:00:10.749Z,15.40
2017-07-16T00:02:38.190Z,15.30
2017-07-16T00:05:05.694Z,15.40
2017-07-16T00:07:33.124Z,15.40
2017-07-16T00:10:00.573Z,15.40
2017-07-16T00:12:28.109Z,15.40
2017-07-16T00:14:56.336Z,15.40
2017-07-16T00:17:23.802Z,15.40
2017-07-16T00:19:51.237Z,15.40
2017-07-16T00:22:18.705Z,15.40
2017-07-16T00:24:46.968Z,15.40
2017-07-16T00:27:15.210Z,15.30
2017-07-16T00:29:42.658Z,15.30
2017-07-16T00:32:10.116Z,15.20
2017-07-16T00:34:37.598Z,15.20
2017-07-16T00:37:05.050Z,15.20
2017-07-16T00:39:32.497Z,15.20
2017-07-16T00:41:59.941Z,15.20
2017-07-16T00:44:27.559Z,15.10
2017-07-16T00:46:55.006Z,15.10
2017-07-16T00:49:22.462Z,15.10
2017-07-16T00:51:49.898Z,15.10
2017-07-16T00:54:17.341Z,15.10
2017-07-16T00:56:44.848Z,15.10
2017-07-16T00:59:13.089Z,15.00
2017-07-16T01:01:40.565Z,15.00
2017-07-16T01:04:08.001Z,14.90
2017-07-16T01:06:35.471Z,14.90
2017-07-16T01:09:02.927Z,14.80
2017-07-16T01:11:30.378Z,14.80
2017-07-16T01:13:57.810Z,14.70
2017-07-16T01:16:25.281Z,14.70
2017-07-16T01:18:52.730Z,14.60
2017-07-16T01:21:20.167Z,14.60
2017-07-16T01:23:47.604Z,14.60
2017-07-16T01:26:15.037Z,14.50
2017-07-16T01:28:42.489Z,14.50
2017-07-16T01:31:09.933Z,14.40
2017-07-16T01:33:37.381Z,14.50
2017-07-16T01:36:04.829Z,14.40
2017-07-16T01:38:32.367Z,14.40
2017-07-16T01:40:59.818Z,14.40
2017-07-16T01:43:27.257Z,14.30
2017-07-16T01:45:54.722Z,14.30
2017-07-16T01:48:22.951Z,14.20
2017-07-16T01:50:50.389Z,14.20
2017-07-16T01:53:17.843Z,14.10
2017-07-16T01:55:45.281Z,14.10
2017-07-16T01:58:12.726Z,14.10
2017-07-16T02:00:40.165Z,14.10
2017-07-16T02:03:07.613Z,14.10
2017-07-16T02:05:35.061Z,14.10
2017-07-16T02:08:02.495Z,14.10
2017-07-16T02:10:30.018Z,14.00
2017-07-16T02:12:57.480Z,14.00
2017-07-16T02:15:24.938Z,14.00
2017-07-16T02:17:52.473Z,14.00
2017-07-16T02:20:19.921Z,14.00
2017-07-16T02:22:47.363Z,14.00
2017-07-16T02:25:14.826Z,14.00
2017-07-16T02:27:42.301Z,13.90
2017-07-16T02:30:09.732Z,13.90
2017-07-16T02:32:37.178Z,13.90
2017-07-16T02:35:04.610Z,13.90
2017-07-16T02:37:32.054Z,13.80
2017-07-16T02:39:59.487Z,13.80
2017-07-16T02:42:26.967Z,13.80
2017-07-16T02:44:54.402Z,13.80
2017-07-16T02:47:21.868Z,13.70
2017-07-16T02:49:49.329Z,13.80
2017-07-16T02:52:16.762Z,13.80
2017-07-16T02:54:44.210Z,13.70
2017-07-16T02:57:11.643Z,13.70
2017-07-16T02:59:39.085Z,13.60
2017-07-16T03:02:06.538Z,13.60
2017-07-16T03:04:33.977Z,13.60
2017-07-16T03:07:01.422Z,13.60
2017-07-16T03:09:28.907Z,13.60
2017-07-16T03:11:56.356Z,13.60
2017-07-16T03:14:23.791Z,13.50
2017-07-16T03:16:51.233Z,13.50
2017-07-16T03:19:18.673Z,13.50
2017-07-16T03:21:46.105Z,13.60
2017-07-16T03:24:14.344Z,13.50
2017-07-16T03:26:41.865Z,13.50
2017-07-16T03:29:09.312Z,13.50
2017-07-16T03:31:36.766Z,13.50
2017-07-16T03:34:04.209Z,13.50
2017-07-16T03:36:31.650Z,13.40
2017-07-16T03:38:59.091Z,13.40
2017-07-16T03:41:26.529Z,13.50
2017-07-16T03:43:53.969Z,13.50
2017-07-16T03:46:21.417Z,13.60
2017-07-16T03:48:48.861Z,13.60
2017-07-16T03:51:16.317Z,13.60
2017-07-16T03:53:43.796Z,13.70
2017-07-16T03:56:11.224Z,13.70
2017-07-16T03:58:38.745Z,13.70
2017-07-16T04:01:07.017Z,13.80
2017-07-16T04:03:35.217Z,13.80
2017-07-16T04:06:02.716Z,13.70
2017-07-16T04:08:30.151Z,13.80
2017-07-16T04:10:57.597Z,13.80
2017-07-16T04:13:25.025Z,13.90
2017-07-16T04:15:52.629Z,14.00
2017-07-16T04:18:20.118Z,14.00
2017-07-16T04:20:47.560Z,14.10
2017-07-16T04:23:15.104Z,14.20
2017-07-16T04:25:42.544Z,14.30
2017-07-16T04:28:10.774Z,14.40
2017-07-16T04:30:38.226Z,14.40
2017-07-16T04:33:05.667Z,14.50
2017-07-16T04:35:33.105Z,14.60
2017-07-16T04:38:00.657Z,14.60
2017-07-16T04:40:28.090Z,14.70
2017-07-16T04:42:55.528Z,14.70
2017-07-16T04:45:22.977Z,14.70
2017-07-16T04:47:50.453Z,14.70
2017-07-16T04:50:17.921Z,14.80
2017-07-16T04:52:46.109Z,14.80
2017-07-16T04:55:13.574Z,14.80
2017-07-16T04:57:41.013Z,14.90
2017-07-16T05:00:08.458Z,15.00
2017-07-16T05:02:35.904Z,15.10
2017-07-16T05:05:03.346Z,15.20
2017-07-16T05:07:30.789Z,15.20
2017-07-16T05:09:58.222Z,15.20
2017-07-16T05:12:25.677Z,15.20
2017-07-16T05:14:53.110Z,15.30
2017-07-16T05:17:20.578Z,15.30
2017-07-16T05:19:48.019Z,15.40
2017-07-16T05:22:15.456Z,15.50
2017-07-16T05:24:43.040Z,15.60
2017-07-16T05:27:11.285Z,15.90
2017-07-16T05:29:39.533Z,16.00
2017-07-16T05:32:06.977Z,16.00
2017-07-16T05:34:34.518Z,16.10
2017-07-16T05:37:01.961Z,16.30
2017-07-16T05:39:29.417Z,16.70
2017-07-16T05:41:56.849Z,17.30
2017-07-16T05:44:24.512Z,18.00
2017-07-16T05:46:51.938Z,18.60
2017-07-16T05:49:19.373Z,19.20
2017-07-16T05:51:46.817Z,19.60
2017-07-16T05:54:14.245Z,20.00
2017-07-16T05:56:41.701Z,20.30
2017-07-16T05:59:09.131Z,20.60
2017-07-16T06:01:36.572Z,20.90
2017-07-16T06:04:04.008Z,21.20
2017-07-16T06:06:31.454Z,21.60
2017-07-16T06:08:58.898Z,22.00
2017-07-16T06:11:26.333Z,22.30
2017-07-16T06:13:53.920Z,22.40
2017-07-16T06:16:21.349Z,22.80
2017-07-16T06:18:48.797Z,23.20
2017-07-16T06:21:16.230Z,23.50
2017-07-16T06:23:43.668Z,23.80
2017-07-16T06:26:11.110Z,23.80
2017-07-16T06:28:38.557Z,23.80
2017-07-16T06:31:06.005Z,24.10
2017-07-16T06:33:33.429Z,24.10
2017-07-16T06:36:00.893Z,24.30
2017-07-16T06:38:28.324Z,24.20
2017-07-16T06:40:55.753Z,24.00
2017-07-16T06:43:23.225Z,24.30
2017-07-16T06:45:50.661Z,24.50
2017-07-16T06:48:18.097Z,24.70
2017-07-16T06:50:45.571Z,24.90
2017-07-16T06:53:13.010Z,25.30
2017-07-16T06:55:41.251Z,25.60
2017-07-16T06:58:08.694Z,25.60
2017-07-16T07:00:36.154Z,25.60
2017-07-16T07:03:04.394Z,26.20
2017-07-16T07:05:31.832Z,26.10
2017-07-16T07:07:59.274Z,26.10
2017-07-16T07:10:26.730Z,25.90
2017-07-16T07:12:54.177Z,26.00
2017-07-16T07:15:21.601Z,26.30
2017-07-16T07:17:49.063Z,26.40
2017-07-16T07:20:16.490Z,26.40
2017-07-16T07:22:43.948Z,26.20
2017-07-16T07:25:11.385Z,26.70
2017-07-16T07:27:38.829Z,26.90
2017-07-16T07:30:06.272Z,27.10
2017-07-16T07:32:33.701Z,27.30
2017-07-16T07:35:01.171Z,27.20
2017-07-16T07:37:29.374Z,27.00
2017-07-16T07:39:57.363Z,27.00
2017-07-16T07:42:25.798Z,26.60
2017-07-16T07:44:53.256Z,26.60
2017-07-16T07:47:20.689Z,27.00
2017-07-16T07:49:48.135Z,27.60
2017-07-16T07:52:18.243Z,28.10
2017-07-16T07:54:45.682Z,28.40
2017-07-16T07:57:13.162Z,28.60
2017-07-16T07:59:40.590Z,29.00
2017-07-16T08:02:08.045Z,29.10
2017-07-16T08:04:35.495Z,29.10
2017-07-16T08:07:03.711Z,29.30
2017-07-16T08:09:31.256Z,29.30
2017-07-16T08:12:10.442Z,29.30
2017-07-16T08:14:37.876Z,29.00
2017-07-16T08:17:05.329Z,28.80
2017-07-16T08:19:32.756Z,28.60
2017-07-16T08:22:00.247Z,28.70
2017-07-16T08:24:27.700Z,29.00
2017-07-16T08:26:55.165Z,29.10
2017-07-16T08:29:22.702Z,29.30
2017-07-16T08:31:50.133Z,29.50
2017-07-16T08:34:17.566Z,29.60
2017-07-16T08:36:45.016Z,29.60
2017-07-16T08:39:12.458Z,29.80
2017-07-16T08:41:39.909Z,29.70
2017-07-16T08:44:07.344Z,29.20
2017-07-16T08:46:34.797Z,28.70
2017-07-16T08:49:02.253Z,28.40
2017-07-16T08:51:29.683Z,28.50
2017-07-16T08:53:57.126Z,28.50
2017-07-16T08:56:24.677Z,28.30
2017-07-16T08:58:52.122Z,28.00
2017-07-16T09:01:20.370Z,28.30
2017-07-16T09:03:47.878Z,28.20
2017-07-16T09:06:15.423Z,28.10
2017-07-16T09:08:42.938Z,28.10
2017-07-16T09:11:10.382Z,28.80
2017-07-16T09:13:37.822Z,29.50
2017-07-16T09:16:06.139Z,30.30
2017-07-16T09:18:33.717Z,30.30
2017-07-16T09:21:01.917Z,31.20
2017-07-16T09:23:29.433Z,31.20
2017-07-16T09:25:57.718Z,31.50
2017-07-16T09:28:25.238Z,31.50
2017-07-16T09:30:53.636Z,31.40
2017-07-16T09:33:21.154Z,31.30
2017-07-16T09:35:48.674Z,31.00
2017-07-16T09:38:16.153Z,31.20
2017-07-16T09:40:43.610Z,31.10
2017-07-16T09:43:11.127Z,30.50
2017-07-16T09:45:38.562Z,30.00
2017-07-16T09:48:07.320Z,31.10
2017-07-16T09:50:35.107Z,31.10
2017-07-16T09:53:03.341Z,31.00
2017-07-16T09:55:31.550Z,31.90
2017-07-16T09:57:59.055Z,31.80
2017-07-16T10:00:27.573Z,31.90
2017-07-16T10:02:55.351Z,31.90
2017-07-16T10:05:22.824Z,31.70
2017-07-16T10:07:50.257Z,31.40
2017-07-16T10:10:18.483Z,31.70
2017-07-16T10:12:45.925Z,31.70
2017-07-16T10:15:13.389Z,32.00
2017-07-16T10:17:40.825Z,31.90
2017-07-16T10:20:08.890Z,32.20
2017-07-16T10:22:36.372Z,32.60
2017-07-16T10:25:03.833Z,32.30
2017-07-16T10:27:31.306Z,32.40
2017-07-16T10:29:58.755Z,32.00
2017-07-16T10:32:26.201Z,31.90
2017-07-16T10:34:53.634Z,31.60
2017-07-16T10:37:21.110Z,31.50
2017-07-16T10:39:48.975Z,31.60
2017-07-16T10:42:16.405Z,31.70
2017-07-16T10:44:43.877Z,32.00
2017-07-16T10:47:11.358Z,31.90
2017-07-16T10:49:38.796Z,32.40
2017-07-16T10:52:06.274Z,32.60
2017-07-16T10:54:34.473Z,32.70
2017-07-16T10:57:01.909Z,32.70
2017-07-16T10:59:29.425Z,31.90
2017-07-16T11:01:56.890Z,30.90
2017-07-16T11:04:24.346Z,30.10
2017-07-16T11:06:51.854Z,29.50
2017-07-16T11:09:19.290Z,28.80
2017-07-16T11:11:47.530Z,27.80
2017-07-16T11:14:14.976Z,27.70
2017-07-16T11:16:42.408Z,27.00
2017-07-16T11:19:09.861Z,26.60
2017-07-16T11:21:38.062Z,26.50
2017-07-16T11:24:05.528Z,26.50
2017-07-16T11:26:32.993Z,26.50
2017-07-16T11:29:00.432Z,26.30
2017-07-16T11:31:27.876Z,26.10
2017-07-16T11:33:55.450Z,26.10
2017-07-16T11:36:23.667Z,25.50
2017-07-16T11:38:51.109Z,25.40
2017-07-16T11:41:18.797Z,25.50
2017-07-16T11:43:47.992Z,25.50
2017-07-16T11:46:16.216Z,25.30
2017-07-16T11:48:43.649Z,25.30
2017-07-16T11:51:11.389Z,25.20
2017-07-16T11:53:38.842Z,25.30
2017-07-16T11:56:06.287Z,25.40
2017-07-16T11:58:33.729Z,25.60
2017-07-16T12:01:01.163Z,25.60
2017-07-16T12:03:28.606Z,25.60
2017-07-16T12:05:56.038Z,25.70
2017-07-16T12:08:23.499Z,25.70
2017-07-16T12:10:51.012Z,25.80
2017-07-16T12:13:18.458Z,25.70
2017-07-16T12:15:45.934Z,25.80
2017-07-16T12:18:13.385Z,25.80
2017-07-16T12:20:40.828Z,25.40
2017-07-16T12:23:08.381Z,25.30
2017-07-16T12:25:35.828Z,25.00
2017-07-16T12:28:03.285Z,24.90
2017-07-16T12:30:31.525Z,24.60
2017-07-16T12:32:58.988Z,24.50
2017-07-16T12:35:26.480Z,24.80
2017-07-16T12:37:53.918Z,25.10
2017-07-16T12:40:22.159Z,25.20
2017-07-16T12:42:49.632Z,25.20
2017-07-16T12:45:17.090Z,25.30
2017-07-16T12:47:44.546Z,25.40
2017-07-16T12:50:12.046Z,25.50
2017-07-16T12:52:39.525Z,25.40
2017-07-16T12:55:07.082Z,25.40
2017-07-16T12:57:34.626Z,25.50
2017-07-16T13:00:02.065Z,25.60
2017-07-16T13:02:29.498Z,25.50
2017-07-16T13:04:57.049Z,25.60
2017-07-16T13:07:24.489Z,25.60
2017-07-16T13:09:51.981Z,25.50
2017-07-16T13:12:19.415Z,25.50
2017-07-16T13:14:46.934Z,25.50
2017-07-16T13:17:15.215Z,25.30
2017-07-16T13:19:42.644Z,25.30
2017-07-16T13:22:10.884Z,25.20
2017-07-16T13:24:38.324Z,25.10
2017-07-16T13:27:05.770Z,25.20
2017-07-16T13:29:33.245Z,25.20
2017-07-16T13:32:00.705Z,25.30
2017-07-16T13:34:28.145Z,25.20
2017-07-16T13:36:55.575Z,25.20
2017-07-16T13:39:24.180Z,25.30
2017-07-16T13:41:51.927Z,25.20
2017-07-16T13:44:19.412Z,25.20
2017-07-16T13:46:46.841Z,25.20
2017-07-16T13:49:14.359Z,25.30
2017-07-16T13:51:41.918Z,25.30
2017-07-16T13:54:09.382Z,25.30
2017-07-16T13:56:36.813Z,25.30
2017-07-16T13:59:04.257Z,25.30
2017-07-16T14:01:31.697Z,25.30
2017-07-16T14:03:59.131Z,25.20
2017-07-16T14:06:26.595Z,25.20
2017-07-16T14:08:54.058Z,25.30
2017-07-16T14:11:22.544Z,25.50
2017-07-16T14:13:49.990Z,25.40
2017-07-16T14:16:17.563Z,25.60
2017-07-16T14:18:44.993Z,25.40
2017-07-16T14:21:12.473Z,25.40
2017-07-16T14:23:39.921Z,25.40
2017-07-16T14:26:07.470Z,25.30
2017-07-16T14:28:34.914Z,25.30
2017-07-16T14:31:02.342Z,25.20
2017-07-16T14:33:30.723Z,25.10
2017-07-16T14:35:58.161Z,24.90
2017-07-16T14:38:25.806Z,24.80
2017-07-16T14:40:53.281Z,24.80
2017-07-16T14:43:20.743Z,24.70
2017-07-16T14:45:48.198Z,24.50
2017-07-16T14:48:15.639Z,24.60
2017-07-16T14:50:43.113Z,24.70
2017-07-16T14:53:10.581Z,24.70
2017-07-16T14:55:38.785Z,24.80
2017-07-16T14:58:06.321Z,24.70
2017-07-16T15:00:33.762Z,24.80
2017-07-16T15:03:01.235Z,24.70
2017-07-16T15:05:28.866Z,24.70
2017-07-16T15:07:56.301Z,24.70
2017-07-16T15:10:23.782Z,24.70
2017-07-16T15:12:51.214Z,24.70
2017-07-16T15:15:18.668Z,24.80
2017-07-16T15:17:46.225Z,24.80
2017-07-16T15:20:14.426Z,25.00
2017-07-16T15:22:41.962Z,25.00
2017-07-16T15:25:09.420Z,25.00
2017-07-16T15:27:37.030Z,24.90
2017-07-16T15:30:05.308Z,25.00
2017-07-16T15:32:32.789Z,25.00
2017-07-16T15:35:00.258Z,25.00
2017-07-16T15:37:27.749Z,25.00
2017-07-16T15:39:55.205Z,25.00
2017-07-16T15:42:22.641Z,25.00
2017-07-16T15:44:50.125Z,25.10
2017-07-16T15:47:17.666Z,25.00
2017-07-16T15:49:45.201Z,25.00
2017-07-16T15:52:12.640Z,25.00
2017-07-16T15:54:40.175Z,25.00
2017-07-16T15:57:07.683Z,25.00
2017-07-16T15:59:35.145Z,25.00
2017-07-16T16:02:02.574Z,25.00
2017-07-16T16:04:30.075Z,25.00
2017-07-16T16:06:57.518Z,24.90
2017-07-16T16:09:25.035Z,24.90
2017-07-16T16:11:52.514Z,24.90
2017-07-16T16:14:19.938Z,24.80
2017-07-16T16:16:47.385Z,24.80
2017-07-16T16:19:14.840Z,24.80
2017-07-16T16:21:42.281Z,24.70
2017-07-16T16:24:09.714Z,24.70
2017-07-16T16:26:37.158Z,24.70
2017-07-16T16:29:04.591Z,24.50
2017-07-16T16:31:32.067Z,24.50
2017-07-16T16:34:00.301Z,24.40
2017-07-16T16:36:27.750Z,24.40
2017-07-16T16:38:55.189Z,24.40
2017-07-16T16:41:22.815Z,24.40
2017-07-16T16:43:50.240Z,24.40
2017-07-16T16:46:17.679Z,24.40
2017-07-16T16:48:45.121Z,24.50
2017-07-16T16:51:12.557Z,24.50
2017-07-16T16:53:40.016Z,24.50
2017-07-16T16:56:07.463Z,24.50
2017-07-16T16:58:34.889Z,24.50
2017-07-16T17:01:02.355Z,24.50
2017-07-16T17:03:29.784Z,24.50
2017-07-16T17:05:57.298Z,24.40
2017-07-16T17:08:25.495Z,24.30
2017-07-16T17:10:52.997Z,24.20
2017-07-16T17:13:21.206Z,24.40
2017-07-16T17:15:48.637Z,24.40
2017-07-16T17:18:16.087Z,24.40
2017-07-16T17:20:44.147Z,24.30
2017-07-16T17:23:11.582Z,24.30
2017-07-16T17:25:39.049Z,24.20
2017-07-16T17:28:06.486Z,24.20
2017-07-16T17:30:34.062Z,24.20
2017-07-16T17:33:02.278Z,24.10
2017-07-16T17:35:29.712Z,24.10
2017-07-16T17:37:57.193Z,24.10
2017-07-16T17:40:24.627Z,24.00
2017-07-16T17:42:52.082Z,24.10
2017-07-16T17:45:19.541Z,24.00
2017-07-16T17:47:47.765Z,23.90
2017-07-16T17:50:15.222Z,23.90
2017-07-16T17:52:42.678Z,23.90
2017-07-16T17:55:10.116Z,23.90
2017-07-16T17:57:37.580Z,23.80
2017-07-16T18:00:05.022Z,23.80
2017-07-16T18:02:33.235Z,23.80
2017-07-16T18:05:00.726Z,23.70
2017-07-16T18:07:28.161Z,23.70
2017-07-16T18:09:56.433Z,23.80
2017-07-16T18:12:24.645Z,23.80
2017-07-16T18:14:52.082Z,23.80
2017-07-16T18:17:19.526Z,23.80
2017-07-16T18:19:46.962Z,23.80
2017-07-16T18:22:14.402Z,23.70
2017-07-16T18:24:41.846Z,23.70
2017-07-16T18:27:09.287Z,23.70
2017-07-16T18:29:36.740Z,23.70
2017-07-16T18:32:04.171Z,23.60
2017-07-16T18:34:31.615Z,23.60
2017-07-16T18:36:59.045Z,23.60
2017-07-16T18:39:26.497Z,23.60
2017-07-16T18:41:53.989Z,23.60
2017-07-16T18:44:22.185Z,23.60
2017-07-16T18:46:49.633Z,23.50
2017-07-16T18:49:17.062Z,23.60
2017-07-16T18:51:44.560Z,23.60
2017-07-16T18:54:12.202Z,23.60
2017-07-16T18:56:40.173Z,23.60
2017-07-16T18:59:07.613Z,23.60
2017-07-16T19:01:35.054Z,23.60
2017-07-16T19:04:02.508Z,23.60
2017-07-16T19:06:30.696Z,23.60
2017-07-16T19:08:58.143Z,23.50
2017-07-16T19:11:25.577Z,23.60
2017-07-16T19:13:53.081Z,23.50
2017-07-16T19:16:20.533Z,23.50
2017-07-16T19:18:47.962Z,23.50
2017-07-16T19:21:15.405Z,23.50
2017-07-16T19:23:42.841Z,23.50
2017-07-16T19:26:10.280Z,23.40
2017-07-16T19:28:37.735Z,23.50
2017-07-16T19:31:05.183Z,23.50
2017-07-16T19:33:32.989Z,23.40
2017-07-16T19:36:00.459Z,23.40
2017-07-16T19:38:28.077Z,23.30
2017-07-16T19:40:55.577Z,23.30
2017-07-16T19:43:23.258Z,23.20
2017-07-16T19:45:50.774Z,23.20
2017-07-16T19:48:18.222Z,23.20
2017-07-16T19:50:46.436Z,23.10
2017-07-16T19:53:14.125Z,23.10
2017-07-16T19:55:42.367Z,23.00
2017-07-16T19:58:09.818Z,23.00
2017-07-16T20:00:37.261Z,22.90
2017-07-16T20:03:04.702Z,22.80
2017-07-16T20:05:32.181Z,22.70
2017-07-16T20:08:00.021Z,22.50
2017-07-16T20:10:27.538Z,22.50
2017-07-16T20:12:54.989Z,22.40
2017-07-16T20:15:23.277Z,22.40
2017-07-16T20:17:50.771Z,22.40
2017-07-16T20:20:18.242Z,22.40
2017-07-16T20:22:47.217Z,22.30
2017-07-16T20:25:14.657Z,22.30
2017-07-16T20:27:42.074Z,22.30
2017-07-16T20:30:09.529Z,22.30
2017-07-16T20:32:36.973Z,22.20
2017-07-16T20:35:04.421Z,22.20
2017-07-16T20:37:31.862Z,22.10
2017-07-16T20:39:59.318Z,22.00
2017-07-16T20:42:27.569Z,21.90
2017-07-16T20:44:55.017Z,21.90
2017-07-16T20:47:22.458Z,21.90
2017-07-16T20:49:49.893Z,21.90
2017-07-16T20:52:17.337Z,21.80
2017-07-16T20:54:45.553Z,21.60
2017-07-16T20:57:13.077Z,21.50
2017-07-16T20:59:40.533Z,21.40
2017-07-16T21:02:07.998Z,21.30
2017-07-16T21:04:35.434Z,21.20
2017-07-16T21:07:02.901Z,21.20
2017-07-16T21:09:30.374Z,21.10
2017-07-16T21:11:58.609Z,21.10
2017-07-16T21:14:26.053Z,21.10
2017-07-16T21:16:53.554Z,21.10
2017-07-16T21:19:21.005Z,21.00
2017-07-16T21:21:48.446Z,21.00
2017-07-16T21:24:17.883Z,20.90
2017-07-16T21:26:45.322Z,20.90
2017-07-16T21:29:12.801Z,20.80
2017-07-16T21:31:40.277Z,20.70
2017-07-16T21:34:07.704Z,20.70
2017-07-16T21:36:35.151Z,20.60
2017-07-16T21:39:02.600Z,20.50
2017-07-16T21:41:30.031Z,20.50
2017-07-16T21:43:57.529Z,20.50
2017-07-16T21:46:25.031Z,20.40
2017-07-16T21:48:52.476Z,20.40
2017-07-16T21:51:19.932Z,20.40
2017-07-16T21:53:48.128Z,20.40
2017-07-16T21:56:16.326Z,20.30
2017-07-16T21:58:43.769Z,20.30
2017-07-16T22:01:11.254Z,20.20
2017-07-16T22:03:38.688Z,20.20
2017-07-16T22:06:06.134Z,20.20
2017-07-16T22:08:33.566Z,20.10
2017-07-16T22:11:01.020Z,20.00
2017-07-16T22:13:28.469Z,20.00
2017-07-16T22:15:55.908Z,19.90
2017-07-16T22:18:23.367Z,19.80
2017-07-16T22:20:50.806Z,19.60
2017-07-16T22:23:19.041Z,19.50
2017-07-16T22:25:46.486Z,19.40
2017-07-16T22:28:13.922Z,19.50
2017-07-16T22:30:41.353Z,19.40
2017-07-16T22:33:08.781Z,19.30
2017-07-16T22:35:36.228Z,19.40
2017-07-16T22:38:04.491Z,19.40
2017-07-16T22:40:31.930Z,19.40
2017-07-16T22:42:59.357Z,19.40
2017-07-16T22:45:26.810Z,19.40
2017-07-16T22:47:54.261Z,19.40
2017-07-16T22:50:21.704Z,19.30
2017-07-16T22:52:49.628Z,19.30
2017-07-16T22:55:17.813Z,19.20
2017-07-16T22:57:45.253Z,19.10
2017-07-16T23:00:12.689Z,19.10
2017-07-16T23:02:40.138Z,19.00
2017-07-16T23:05:07.579Z,19.10
2017-07-16T23:07:35.014Z,19.10
2017-07-16T23:10:02.464Z,19.00
2017-07-16T23:12:29.896Z,19.00
2017-07-16T23:14:57.332Z,19.00
2017-07-16T23:17:24.847Z,19.00
2017-07-16T23:19:52.295Z,19.00
2017-07-16T23:22:19.726Z,19.00
2017-07-16T23:24:47.162Z,18.90
2017-07-16T23:27:14.608Z,18.90
2017-07-16T23:29:42.034Z,18.80
2017-07-16T23:32:09.477Z,18.90
2017-07-16T23:34:36.913Z,18.90
2017-07-16T23:37:04.356Z,18.90
2017-07-16T23:39:31.797Z,18.90
2017-07-16T23:41:59.326Z,18.90
2017-07-16T23:44:26.787Z,19.00
2017-07-16T23:46:54.303Z,19.00
2017-07-16T23:49:21.741Z,19.10
2017-07-16T23:51:49.174Z,19.10
2017-07-16T23:54:16.626Z,19.10
2017-07-16T23:56:44.057Z,19.10
2017-07-16T23:59:11.496Z,19.10
